aviador You're here:

KLRF Decoded Metar

JACKSONVILLE in AR, USA
Report Time2017-12-18 08:56:00
UTC Time2017-12-18 09:02:28
Flight Rules lifr LIFR
Wind240° at 04 kt
W.Decomp.*RWY 25: 3.9 kt HW 0.8 kt LCW
W.Rank240° ranks 23
Current wind is below 240° avg. (5.9)
Visibility9999 m
Phenomena:N/A
Clouds:Overcast 004 Hf
Ceiling400 ft
Temp07°C (ISA -7)
Dew Point07°C (100% RH)
AAT4.9°C
QNH1021 hPa
Density Alt-712 ft
Elevation312 ft
Report Wrong Elevation
Raw Report
KLRF 180856Z AUTO 24004KT 9SM OVC004 07/07 A3015 RMK AO2 SLP214
T00730072 51008=

Extra information for KLRF:More info

Metar Taf Metar & Taf Last 4 Metars F.Rules Stats Wind Profile Meteogram Temp Stats Airport Information Weather charts Add Link Nearby VenuesMetar ALERT Operation Metar Decoded Social comments

AIRNAV info for KLRF